• Join FlightAware (Why Join?)
  • Login
  • US Flag 
05:42PM EDT


 

Airport Tracker/Info


-or-


 

Live Flight TrackerFlight Track Log ✈ SWA385 ✈ 17-Jul-2013 ✈ KMDW - KSMF

Flight Track Log - Related Links

Times and Time Zones

All times are in EDT time to prevent confusion due to time zone crossing. See the SWA385 flight status page for this flight to view local times or setup timezone preferences in your user account.

Time Position Orientation Groundspeed Altitude Reporting Facility
EDT Latitude Longitude Course Direction KTS MPH feet Rate Location/Type
08:20PM 41.7833 -87.8167 263° West 205 236 2,800  Level Chicago TRACON
08:21PM 41.7500 -87.9000 242° Southwest 255 293 4,500 1,320 Climbing Chicago TRACON
08:23PM 41.7497 -88.0500 270° West 276 318 6,000 600 Climbing Chicago Center
08:24PM 41.7456 -88.1483 267° West 269 310 6,000  Level Chicago Center
08:25PM 41.7406 -88.2475 266° West 271 312 6,000 120 Level Chicago Center
08:26PM 41.7225 -88.7098 263° West  Level FlightAware Approximate
08:26PM 41.7478 -88.3439 276° West 273 314 6,300  Level Chicago Center
08:27PM 41.7819 -88.4375 296° West 281 323 9,400 2,880 Climbing Chicago Center
08:28PM 41.7733 -88.5694 265° West 303 349 12,400 2,400 Climbing Chicago Center
08:29PM 41.7697 -88.6978 268° West 335 386 14,400 2,220 Climbing Chicago Center
08:30PM 41.7650 -88.8347 267° West 363 418 17,000 2,160 Climbing Chicago Center
08:31PM 41.7617 -88.9744 268° West 374 430 18,900 2,040 Climbing Chicago Center
08:32PM 41.7597 -89.1200 269° West 390 449 21,300 2,160 Climbing Chicago Center
08:33PM 41.7564 -89.3042 269° West 413 475 23,400 1,920 Climbing Chicago Center
08:34PM 41.7542 -89.4622 269° West 425 489 25,300 1,800 Climbing Chicago Center
08:35PM 41.7525 -89.6264 269° West 431 496 27,200 1,620 Climbing Chicago Center
08:36PM 41.7522 -89.7911 270° West 441 507 28,700 1,440 Climbing Chicago Center
08:37PM 41.7708 -89.9569 279° West 451 519 30,200 1,680 Climbing Chicago Center
08:38PM 41.8053 -90.1217 286° West 458 527 32,200 1,320 Climbing Chicago Center
08:39PM 41.8444 -90.3147 285° West 453 521 33,000 360 Climbing Chicago Center
08:40PM 41.8775 -90.4764 285° West 453 521 33,000 240 Level Chicago Center
08:42PM 41.8808 -90.6472 272° West 462 532 33,500 1,020 Climbing Chicago Center
08:43PM 41.8867 -90.8175 273° West 463 533 35,200 1,380 Climbing Chicago Center
08:44PM 41.8917 -90.9836 272° West 455 524 36,400 840 Climbing Chicago Center
08:45PM 41.9008 -91.1817 274° West 449 517 37,000 240 Climbing Chicago Center
08:46PM 41.9056 -91.3486 272° West 448 516 37,000 60 Level Chicago Center
08:47PM 41.9111 -91.5156 273° West 449 517 37,200 480 Climbing Chicago Center
08:48PM 41.9164 -91.6839 272° West 451 519 38,000 360 Climbing Chicago Center
08:49PM 41.9219 -91.8517 273° West 452 520 38,000  Level Chicago Center
08:50PM 41.9275 -92.0514 272° West 451 519 38,000  Level Chicago Center
08:51PM 41.9319 -92.2181 272° West 448 516 38,000  Level Chicago Center
08:52PM 41.9356 -92.3850 272° West 450 518 38,000  Level Chicago Center
08:53PM 41.9400 -92.5511 272° West 449 517 38,000  Level Chicago Center
08:54PM 41.9433 -92.7186 272° West 450 518 38,000  Level Chicago Center
08:55PM 41.9469 -92.8858 272° West 448 516 38,000  Level Minneapolis Center
08:56PM 41.9517 -93.0844 272° West 450 518 38,000  Level Minneapolis Center
08:57PM 41.9539 -93.2494 271° West 444 511 38,000  Level Minneapolis Center
08:58PM 41.9572 -93.4153 272° West 448 516 38,000  Level Minneapolis Center
08:59PM 41.9592 -93.5819 271° West 450 518 38,000  Level Minneapolis Center
09:00PM 41.9631 -93.7492 272° West 451 519 38,000  Level Minneapolis Center
09:01PM 41.9650 -93.9308 271° West 448 516 38,000  Level Minneapolis Center
09:02PM 41.9667 -94.0986 271° West 448 516 38,000  Level Minneapolis Center
09:03PM 41.9694 -94.3017 271° West 452 520 38,000  Level Minneapolis Center
09:04PM 41.9694 -94.4714 270° West 454 522 38,000  Level Minneapolis Center
09:05PM 41.9714 -94.6408 271° West 455 524 38,000  Level Minneapolis Center
09:06PM 41.9733 -94.8114 271° West 456 525 38,000  Level Minneapolis Center
09:07PM 41.9708 -94.9797 269° West 454 522 38,000  Level Minneapolis Center
09:08PM 41.9733 -95.1514 271° West 459 528 38,000  Level Minneapolis Center
09:09PM 41.9722 -95.3578 270° West 463 533 38,000  Level Minneapolis Center
09:10PM 41.9719 -95.5275 270° West 459 528 38,000  Level Minneapolis Center
09:11PM 41.9725 -95.6964 270° West 457 526 38,000  Level Minneapolis Center
09:13PM 41.9711 -95.8661 269° West 457 526 38,000  Level Minneapolis Center
09:14PM 41.9694 -96.0339 269° West 454 522 38,000  Level Minneapolis Center
09:15PM 41.9683 -96.2369 270° West 457 526 38,000  Level Minneapolis Center
09:16PM 41.9672 -96.4056 270° West 456 525 38,000  Level Minneapolis Center
09:17PM 41.9644 -96.5756 269° West 456 525 38,000  Level Minneapolis Center
09:18PM 41.9617 -96.7436 269° West 455 524 38,000  Level Minneapolis Center
09:19PM 41.9597 -96.9125 269° West 454 522 38,000  Level Minneapolis Center
09:20PM 41.9569 -97.0822 269° West 456 525 38,000  Level Minneapolis Center
09:21PM 41.9531 -97.2856 269° West 456 525 38,000  Level Minneapolis Center
09:22PM 41.9503 -97.4564 269° West 458 527 38,000  Level Minneapolis Center
09:23PM 41.9478 -97.6261 269° West 457 526 38,000  Level Minneapolis Center
09:24PM 41.9431 -97.7953 268° West 455 524 38,000  Level Minneapolis Center
09:25PM 41.9397 -97.9661 269° West 456 525 38,000  Level Minneapolis Center
09:26PM 41.9356 -98.1611 268° West 453 521 38,000  Level Minneapolis Center
09:27PM 41.9306 -98.3289 268° West 453 521 38,000  Level Minneapolis Center
09:28PM 41.9269 -98.4981 268° West 454 522 38,000  Level Minneapolis Center
09:29PM 41.9214 -98.6658 268° West 453 521 38,000  Level Minneapolis Center
09:30PM 41.9158 -98.8347 268° West 455 524 38,000  Level Minneapolis Center
09:31PM 41.9089 -99.0389 267° West 458 527 38,000  Level Minneapolis Center
09:32PM 41.9036 -99.2100 268° West 460 529 38,000  Level Minneapolis Center
09:33PM 41.8981 -99.3808 268° West 460 529 38,000  Level Minneapolis Center
09:34PM 41.8914 -99.5542 267° West 464 534 38,000  Level Minneapolis Center
09:35PM 41.8842 -99.7261 267° West 464 534 38,000  Level Minneapolis Center
09:36PM 41.8753 -99.9644 267° West 460 529 38,000  Level Minneapolis Center
09:38PM 41.8672 -100.1350 266° West 459 528 38,000  Level Minneapolis Center
09:39PM 41.8608 -100.3047 267° West 458 527 38,000  Level Minneapolis Center
09:40PM 41.8536 -100.4711 267° West 453 521 38,000  Level Minneapolis Center
09:41PM 41.8419 -100.7078 266° West 453 521 38,000  Level Denver Center
09:42PM 41.8339 -100.8681 266° West 452 520 38,000  Level Denver Center
09:43PM 41.8242 -101.0575 266° West 458 527 38,000  Level Denver Center
09:44PM 41.8161 -101.2194 266° West 458 527 38,000  Level Denver Center
09:45PM 41.8058 -101.4086 266° West 458 527 38,000  Level Denver Center
09:46PM 41.7981 -101.5694 266° West 454 522 38,000  Level Denver Center
09:47PM 41.7878 -101.7319 265° West 458 527 38,000  Level Denver Center
09:48PM 41.7772 -101.9208 266° West 458 527 38,000  Level Denver Center
09:49PM 41.7672 -102.0831 265° West 458 527 38,000  Level Denver Center
09:50PM 41.7558 -102.2711 265° West 456 525 38,000  Level Denver Center
09:51PM 41.7456 -102.4339 265° West 458 527 38,000  Level Denver Center
09:52PM 41.7331 -102.6250 265° West 461 531 38,000  Level Denver Center
09:53PM 41.7225 -102.7856 265° West 455 524 38,000  Level Denver Center
09:54PM 41.7111 -102.9736 265° West 453 521 38,000  Level Denver Center
09:55PM 41.7000 -103.1339 265° West 452 520 38,000  Level Denver Center
09:56PM 41.6861 -103.3203 264° West 451 519 38,000  Level Denver Center
09:57PM 41.6750 -103.4797 265° West 450 518 38,000  Level Denver Center
09:58PM 41.6619 -103.6667 265° West 451 519 38,000  Level Denver Center
10:00PM 41.6497 -103.8283 264° West 454 522 38,000 240 Level Denver Center
10:01PM 41.6356 -104.0167 264° West 454 522 38,500 480 Climbing Denver Center
10:02PM 41.6228 -104.1817 264° West 464 534 39,000 240 Climbing Denver Center
10:03PM 41.6094 -104.3456 264° West 464 534 39,000  Level Denver Center
10:04PM 41.5942 -104.5350 264° West 460 529 39,000  Level Denver Center
10:05PM 41.5803 -104.6983 264° West 460 529 39,000  Level Denver Center
10:06PM 41.5650 -104.8861 264° West 456 525 39,000  Level Denver Center
10:07PM 41.5519 -105.0472 264° West 454 522 39,000  Level Denver Center
10:08PM 41.5356 -105.2308 263° West 448 516 39,000  Level Denver Center
10:09PM 41.5214 -105.3903 263° West 450 518 39,000  Level Denver Center
10:10PM 41.5050 -105.5756 263° West 451 519 39,000  Level Denver Center
10:11PM 41.4906 -105.7342 263° West 450 518 39,000  Level Denver Center
10:12PM 41.4758 -105.8906 263° West 446 513 39,000  Level Denver Center
10:13PM 41.4589 -106.0758 263° West 450 518 39,000  Level Denver Center
10:14PM 41.4428 -106.2342 262° West 450 518 39,000  Level Denver Center
10:15PM 41.4250 -106.4178 263° West 448 516 39,000  Level Denver Center
10:16PM 41.4097 -106.5836 263° West 445 512 39,000  Level Denver Center
10:17PM 41.3939 -106.7400 262° West 445 512 39,000  Level Denver Center
10:18PM 41.3750 -106.9214 262° West 443 510 39,000  Level Denver Center
10:19PM 41.3583 -107.0772 262° West 443 510 39,000  Level Denver Center
10:20PM 41.3400 -107.2567 262° West 441 507 39,000  Level Denver Center
10:21PM 41.3247 -107.4111 263° West 440 506 39,000  Level Denver Center
10:22PM 41.3050 -107.5917 262° West 443 510 39,000  Level Denver Center
10:23PM 41.2883 -107.7456 262° West 440 506 39,000  Level Denver Center
10:24PM 41.2708 -107.9242 263° West 437 503 39,000  Level Denver Center
10:25PM 41.2606 -108.0781 265° West 438 504 39,000  Level Denver Center
10:26PM 41.2506 -108.2300 265° West 433 498 39,000  Level Denver Center
10:27PM 41.2372 -108.4103 264° West 437 503 39,000  Level Denver Center
10:28PM 41.2264 -108.5639 265° West 436 502 39,000  Level Denver Center
10:29PM 41.2119 -108.7447 264° West 439 505 39,000  Level Denver Center
10:30PM 41.1994 -108.9003 264° West 440 506 39,000 360 Level Denver Center
10:31PM 41.1878 -109.0561 264° West 438 504 39,800 480 Climbing Denver Center
10:33PM 41.1736 -109.2364 264° West 437 503 40,000 60 Climbing Denver Center
10:34PM 41.1611 -109.3914 264° West 438 504 40,000  Level Denver Center
10:35PM 41.1475 -109.5683 264° West 431 496 40,000  Level Denver Center
10:36PM 41.1303 -109.7689 264° West 430 495 40,000  Level Salt Lake Center
10:37PM 41.1169 -109.9211 263° West 433 498 40,000  Level Salt Lake Center
10:38PM 41.1019 -110.0994 264° West 435 501 40,000  Level Salt Lake Center
10:39PM 41.0894 -110.2517 264° West 434 499 40,000  Level Salt Lake Center
10:40PM 41.0731 -110.4269 263° West 431 496 40,000  Level Salt Lake Center
10:41PM 41.0603 -110.5764 264° West 428 493 40,000  Level Salt Lake Center
10:42PM 41.0436 -110.7461 263° West 429 494 40,000  Level Salt Lake Center
10:43PM 41.0300 -110.9025 263° West 430 495 40,000  Level Salt Lake Center
10:44PM 41.0153 -111.0578 263° West 428 493 40,000  Level Salt Lake Center
10:45PM 41.0006 -111.2144 263° West 429 494 40,000  Level Salt Lake Center
10:46PM 40.9858 -111.3717 263° West 432 497 40,000  Level Salt Lake Center
10:47PM 40.9706 -111.5278 263° West 427 491 40,000  Level Salt Lake Center
10:48PM 40.9550 -111.6850 263° West 427 491 40,000  Level Salt Lake Center
10:49PM 40.9389 -111.8458 262° West 427 491 40,000  Level Salt Lake Center
10:50PM 40.9208 -112.0083 262° West 447 514 40,000  Level Salt Lake Center
10:51PM 40.9050 -112.1653 262° West 427 491 40,000  Level Salt Lake Center
10:52PM 40.8897 -112.3194 263° West 424 488 40,000  Level Salt Lake Center
10:53PM 40.8697 -112.5044 262° West 424 488 40,000  Level Salt Lake Center
10:54PM 40.8536 -112.6578 262° West 423 487 40,000  Level Salt Lake Center
10:55PM 40.8356 -112.8125 261° West 427 491 40,000  Level Salt Lake Center
10:56PM 40.8181 -112.9672 262° West 427 491 40,000  Level Salt Lake Center
10:57PM 40.8008 -113.1211 262° West 423 487 40,000  Level Salt Lake Center
10:59PM 40.7842 -113.2744 262° West 421 484 40,000  Level Salt Lake Center
11:00PM 40.7656 -113.4242 261° West 417 480 40,000  Level Salt Lake Center
11:01PM 40.7439 -113.6061 261° West 419 482 40,000  Level Salt Lake Center
11:02PM 40.7272 -113.7556 262° West 415 478 40,000  Level Salt Lake Center
11:03PM 40.7203 -113.9106 267° West 421 484 40,000  Level Salt Lake Center
11:04PM 40.7158 -114.0642 268° West 422 486 40,000  Level Salt Lake Center
11:05PM 40.7097 -114.2158 267° West 417 480 40,000  Level Salt Lake Center
11:06PM 40.7028 -114.3703 267° West 422 486 40,000  Level Salt Lake Center
11:07PM 40.6983 -114.5222 268° West 418 481 40,000  Level Salt Lake Center
11:08PM 40.6928 -114.6719 267° West 413 475 40,000  Level Salt Lake Center
11:09PM 40.6853 -114.8325 267° West 413 475 40,000  Level Salt Lake Center
11:10PM 40.6764 -115.0017 266° West 414 476 40,000  Level Salt Lake Center
11:11PM 40.6672 -115.1458 265° West 414 476 40,000  Level Salt Lake Center
11:12PM 40.6589 -115.3128 266° West 409 471 40,000  Level Salt Lake Center
11:13PM 40.6514 -115.4567 266° West 412 474 40,000  Level Salt Lake Center
11:14PM 40.6425 -115.6258 266° West 415 478 40,000  Level Salt Lake Center
11:15PM 40.6353 -115.7703 266° West 415 478 40,000  Level Salt Lake Center
11:16PM 40.6278 -115.9147 266° West 414 476 40,000  Level Salt Lake Center
11:17PM 40.6181 -116.0819 266° West 411 473 40,000  Level Salt Lake Center
11:18PM 40.6097 -116.2231 266° West 408 470 40,000  Level Salt Lake Center
11:19PM 40.6019 -116.3889 267° West 408 470 40,000  Level Salt Lake Center
11:20PM 40.5931 -116.5300 265° West 407 468 40,000  Level Salt Lake Center
11:21PM 40.5844 -116.6719 265° West 408 470 40,000  Level Salt Lake Center
11:22PM 40.5769 -116.8367 267° West 410 472 40,000  Level Salt Lake Center
11:23PM 40.5522 -116.9728 257° West 413 475 40,000  Level Salt Lake Center
11:24PM 40.4947 -117.1153 242° Southwest 402 463 40,000  Level Salt Lake Center
11:25PM 40.4458 -117.2378 242° Southwest 400 460 40,000  Level Salt Lake Center
11:26PM 40.3861 -117.3847 242° Southwest 407 468 40,000  Level Salt Lake Center
11:27PM 40.3367 -117.5086 242° Southwest 404 465 40,000  Level Salt Lake Center
11:28PM 40.2792 -117.6544 243° Southwest 405 466 40,000  Level Salt Lake Center
11:29PM 40.2458 -117.7367 242° Southwest 407 468 40,000  Level Oakland Center
11:30PM 40.1975 -117.8567 242° Southwest 403 464 40,000  Level Oakland Center
11:31PM 40.1450 -117.9847 242° Southwest 401 461 40,000  Level Oakland Center
11:32PM 40.0925 -118.1144 242° Southwest 403 464 40,000  Level Oakland Center
11:33PM 40.0289 -118.2686 242° Southwest 404 465 40,000  Level Oakland Center
11:34PM 39.9772 -118.3964 242° Southwest 400 460 40,000  Level Oakland Center
11:35PM 39.9242 -118.5239 242° Southwest 401 461 40,000  Level Oakland Center
11:36PM 39.8719 -118.6511 242° Southwest 401 461 40,000  Level Oakland Center
11:37PM 39.8197 -118.7767 242° Southwest 398 458 40,000  Level Oakland Center
11:38PM 39.7675 -118.9006 241° Southwest 395 455 40,000  Level Oakland Center
11:39PM 39.7156 -119.0247 241° Southwest 395 455 40,000 -420 Level Oakland Center
11:40PM 39.6625 -119.1500 241° Southwest 399 459 39,200 -960 Descending Oakland Center
11:41PM 39.5972 -119.3003 241° Southwest 401 461 38,100 -1,320 Descending Oakland Center
11:42PM 39.5442 -119.4258 241° Southwest 400 460 36,500 -1,920 Descending Oakland Center
11:43PM 39.4936 -119.5494 242° Southwest 394 453 34,200 -2,220 Descending Oakland Center
11:44PM 39.4414 -119.6706 241° Southwest 388 447 32,100 -2,040 Descending Oakland Center
11:45PM 39.3903 -119.7881 241° Southwest 379 436 30,100 -1,980 Descending Oakland Center
11:46PM 39.3400 -119.9042 241° Southwest 373 429 28,100 -1,980 Descending Oakland Center
11:47PM 39.2911 -120.0189 241° Southwest 367 422 26,100 -2,100 Descending Oakland Center
11:48PM 39.2350 -120.1450 240° Southwest 373 429 23,900 -2,100 Descending Oakland Center
11:49PM 39.1842 -120.2589 240° Southwest 367 422 21,900 -1,920 Descending Oakland Center
11:50PM 39.1528 -120.3786 251° West 352 405 20,000 -1,920 Descending Oakland Center
11:51PM 39.1231 -120.4953 252° West 344 396 18,100 -1,860 Descending Oakland Center
11:52PM 39.0942 -120.6078 252° West 333 383 16,300 -1,800 Descending Oakland Center
11:53PM 39.0639 -120.7175 250° West 328 377 14,500 -1,740 Descending Oakland Center
11:54PM 39.0317 -120.8242 249° West 321 369 12,800 -1,740 Descending Oakland Center
11:55PM 39.0011 -120.9286 249° West 315 362 11,000 -1,680 Descending Oakland Center
11:56PM 38.9644 -121.0475 248° West 298 343 9,500 -1,440 Descending Oakland Center
11:57PM 38.9361 -121.1419 249° West 287 330 8,100 -1,440 Descending Oakland Center
11:58PM 38.9167 -121.2000 247° West 284 327 7,200 -1,500 Descending Northern Cal TRACON
11:59PM 38.9000 -121.2833 256° West 279 321 5,900 -1,260 Descending Northern Cal TRACON
12:00AM 38.8667 -121.3833 247° West 252 290 4,700 -900 Descending Northern Cal TRACON
12:01AM 38.8333 -121.4500 237° Southwest 224 258 4,100 -840 Descending Northern Cal TRACON
12:02AM 38.8167 -121.5167 252° West 191 220 3,100 -1,080 Descending Northern Cal TRACON
12:03AM 38.8000 -121.5833 252° West 166 191 2,000 -1,020 Descending Northern Cal TRACON
12:04AM 38.7667 -121.6000 201° Southwest 141 162 1,100 -780 Descending Northern Cal TRACON
12:05AM 38.7333 -121.6000 180° South 131 151 500 -600 Descending Northern Cal TRACON
12:08AM 38.6954 -121.5908 218° Southwest  Level Estimated
12:15AM 38.6954 -121.5908 218° Southwest  Level Estimated